Time;durP1;ratioP1;P1;durP2;ratioP2;P2;SDS_P1;SDS_P2;PMS_P1;PMS_P2;Temp;Humidity;BMP_temperature;BMP_pressure;BME280_temperature;BME280_humidity;BME280_pressure;Samples;Min_cycle;Max_cycle;Signal;HPM_P1;HPM_P2
2022/06/15 00:00:59;;;;;;;0.40;0.40;;;13.10;99.90;;;;;;5091713;28;20464;-70
2022/06/15 00:03:49;;;;;;;0.40;0.40;;;13.10;99.90;;;;;;5092219;28;20207;-69
2022/06/15 00:06:39;;;;;;;0.50;0.50;;;13.00;99.90;;;;;;5091954;28;20329;-70
2022/06/15 00:09:27;;;;;;;0.50;0.50;;;13.00;99.90;;;;;;5091327;28;20995;-69
2022/06/15 00:12:15;;;;;;;0.40;0.40;;;12.90;99.90;;;;;;5091141;28;20973;-70
2022/06/15 00:15:04;;;;;;;0.50;0.50;;;12.90;99.90;;;;;;5091153;28;20977;-68
2022/06/15 00:17:52;;;;;;;0.50;0.50;;;12.80;99.90;;;;;;5090966;28;20453;-70
2022/06/15 00:20:42;;;;;;;0.50;0.50;;;12.80;99.90;;;;;;5090770;28;20426;-70
2022/06/15 00:23:31;;;;;;;0.50;0.50;;;12.70;99.90;;;;;;5091091;28;20438;-68
2022/06/15 00:26:19;;;;;;;0.50;0.50;;;12.70;99.90;;;;;;5095322;28;20441;-70
2022/06/15 00:29:08;;;;;;;0.50;0.50;;;12.70;99.90;;;;;;5094780;28;20422;-69
2022/06/15 00:31:56;;;;;;;0.40;0.40;;;12.70;99.90;;;;;;5094655;28;20464;-71
2022/06/15 00:34:44;;;;;;;0.50;0.50;;;12.70;99.90;;;;;;5095309;28;20887;-69
2022/06/15 00:37:36;;;;;;;0.50;0.50;;;12.60;99.90;;;;;;5094769;28;20434;-70
2022/06/15 00:40:24;;;;;;;0.50;0.50;;;12.60;99.90;;;;;;5095469;28;20453;-70
2022/06/15 00:43:13;;;;;;;0.40;0.40;;;12.60;99.90;;;;;;5102420;28;20446;-69
2022/06/15 00:46:01;;;;;;;0.50;0.50;;;12.60;99.90;;;;;;5095015;28;20493;-70
2022/06/15 00:48:53;;;;;;;0.50;0.50;;;12.50;99.90;;;;;;5095531;28;20437;-69
2022/06/15 00:51:42;;;;;;;0.50;0.50;;;12.50;99.90;;;;;;5094614;28;20441;-70
2022/06/15 00:54:32;;;;;;;0.40;0.40;;;12.50;99.90;;;;;;5094959;28;20515;-71
2022/06/15 00:57:21;;;;;;;0.50;0.50;;;12.40;99.90;;;;;;5095000;28;20422;-69
2022/06/15 01:00:11;;;;;;;0.50;0.50;;;12.40;99.90;;;;;;5094915;28;20462;-67
2022/06/15 01:03:00;;;;;;;0.40;0.40;;;12.30;99.90;;;;;;5095058;28;20442;-69
2022/06/15 01:05:58;;;;;;;0.60;0.60;;;12.30;99.90;;;;;;5092339;28;20442;-68
2022/06/15 01:08:58;;;;;;;0.50;0.50;;;12.30;99.90;;;;;;5092034;28;20418;-68
2022/06/15 01:12:01;;;;;;;0.50;0.50;;;12.20;99.90;;;;;;5094215;28;20495;-68
2022/06/15 01:15:17;;;;;;;0.50;0.50;;;12.10;99.90;;;;;;5094158;28;20418;-69
2022/06/15 01:18:17;;;;;;;0.40;0.40;;;12.10;99.90;;;;;;5093170;28;20782;-69
2022/06/15 01:21:15;;;;;;;0.40;0.40;;;12.00;99.90;;;;;;5093937;28;20418;-68
2022/06/15 01:24:21;;;;;;;0.50;0.50;;;11.90;99.90;;;;;;5094411;28;20495;-69
2022/06/15 01:27:39;;;;;;;0.50;0.50;;;11.90;99.90;;;;;;5093762;28;20418;-69
2022/06/15 01:30:40;;;;;;;0.50;0.50;;;11.90;99.90;;;;;;5091912;28;21010;-68
2022/06/15 01:33:35;;;;;;;0.50;0.50;;;11.90;99.90;;;;;;5092592;28;20981;-68
2022/06/15 01:36:29;;;;;;;0.50;0.50;;;11.90;99.90;;;;;;5092185;28;20429;-69
2022/06/15 01:39:21;;;;;;;0.50;0.50;;;11.90;99.90;;;;;;5093364;28;20863;-72
2022/06/15 01:42:15;;;;;;;0.50;0.50;;;11.80;99.90;;;;;;5093484;28;20449;-68
2022/06/15 01:45:07;;;;;;;0.50;0.50;;;11.90;99.90;;;;;;5093612;28;20479;-68
2022/06/15 01:48:00;;;;;;;0.50;0.50;;;11.80;99.90;;;;;;5093427;28;20427;-70
2022/06/15 01:50:51;;;;;;;0.50;0.50;;;11.80;99.90;;;;;;5093035;28;21138;-70
2022/06/15 01:53:44;;;;;;;0.50;0.50;;;11.80;99.90;;;;;;5092895;28;20456;-70
2022/06/15 01:56:37;;;;;;;0.40;0.40;;;11.70;99.90;;;;;;5093149;28;20849;-69
2022/06/15 01:59:31;;;;;;;0.50;0.50;;;11.70;99.90;;;;;;5092503;28;20841;-70
2022/06/15 02:02:26;;;;;;;0.47;0.47;;;11.70;99.90;;;;;;5096412;28;20447;-69
2022/06/15 02:05:22;;;;;;;0.50;0.50;;;11.70;99.90;;;;;;5093609;28;21023;-71
2022/06/15 02:08:16;;;;;;;0.50;0.50;;;11.70;99.90;;;;;;5092746;28;20476;-68
2022/06/15 02:11:10;;;;;;;0.50;0.50;;;11.60;99.90;;;;;;5093326;28;20425;-70
2022/06/15 02:14:01;;;;;;;0.50;0.50;;;11.50;99.90;;;;;;5092993;28;20446;-68
2022/06/15 02:16:53;;;;;;;0.50;0.50;;;11.50;99.90;;;;;;5093412;28;20843;-68
2022/06/15 02:19:45;;;;;;;0.50;0.50;;;11.50;99.90;;;;;;5092833;28;20876;-69
2022/06/15 02:22:36;;;;;;;0.50;0.50;;;11.50;99.90;;;;;;5091064;28;20978;-69
2022/06/15 02:25:30;;;;;;;0.50;0.50;;;11.40;99.90;;;;;;5092950;28;20430;-71
2022/06/15 02:28:19;;;;;;;0.50;0.50;;;11.40;99.90;;;;;;5092600;28;20428;-67
2022/06/15 02:31:08;;;;;;;0.50;0.50;;;11.40;99.90;;;;;;5091912;28;20417;-68
2022/06/15 02:33:57;;;;;;;0.50;0.50;;;11.40;99.90;;;;;;5092717;28;20528;-69
2022/06/15 02:36:45;;;;;;;0.40;0.40;;;11.30;99.90;;;;;;5092267;28;20433;-69
2022/06/15 02:39:34;;;;;;;0.50;0.50;;;11.30;99.90;;;;;;5095428;28;20473;-70
2022/06/15 02:42:27;;;;;;;0.50;0.50;;;11.30;99.90;;;;;;5101346;28;20442;-69
2022/06/15 02:45:20;;;;;;;0.50;0.50;;;11.30;99.90;;;;;;5092808;28;20430;-70
2022/06/15 02:48:10;;;;;;;0.50;0.50;;;11.30;99.90;;;;;;5092185;28;20422;-69
2022/06/15 02:51:03;;;;;;;0.50;0.50;;;11.20;99.90;;;;;;5092446;28;20414;-68
2022/06/15 02:53:55;;;;;;;0.50;0.50;;;11.20;99.90;;;;;;5091853;28;20844;-70
2022/06/15 02:56:44;;;;;;;0.50;0.50;;;11.20;99.90;;;;;;5092016;28;20422;-70
2022/06/15 02:59:32;;;;;;;0.50;0.50;;;11.20;99.90;;;;;;5092112;28;20481;-69
2022/06/15 03:02:20;;;;;;;0.50;0.50;;;11.20;99.90;;;;;;5091735;28;20469;-70
2022/06/15 03:05:09;;;;;;;0.50;0.50;;;11.30;99.90;;;;;;5091774;28;20425;-70
2022/06/15 03:07:57;;;;;;;0.50;0.50;;;11.20;99.90;;;;;;5091794;28;20504;-71
2022/06/15 03:10:45;;;;;;;0.50;0.50;;;11.20;99.90;;;;;;5091253;28;20423;-71
2022/06/15 03:13:35;;;;;;;0.50;0.50;;;11.20;99.90;;;;;;5091651;28;20513;-69
2022/06/15 03:16:23;;;;;;;0.40;0.40;;;11.20;99.90;;;;;;5091524;28;20422;-70
2022/06/15 03:19:12;;;;;;;0.50;0.50;;;11.20;99.90;;;;;;5091128;28;20535;-69
2022/06/15 03:22:00;;;;;;;0.50;0.50;;;11.20;99.90;;;;;;5091387;28;20453;-70
2022/06/15 03:24:48;;;;;;;0.50;0.50;;;11.20;99.90;;;;;;5091595;28;20806;-69
2022/06/15 03:27:36;;;;;;;0.43;0.43;;;11.20;99.90;;;;;;5091118;28;20434;-70
2022/06/15 03:30:26;;;;;;;0.50;0.50;;;11.20;99.90;;;;;;5091079;28;20996;-70
2022/06/15 03:33:14;;;;;;;0.40;0.40;;;11.30;99.90;;;;;;5091156;28;20466;-68
2022/06/15 03:36:03;;;;;;;0.40;0.40;;;11.30;99.90;;;;;;5090693;28;20423;-69
2022/06/15 03:38:52;;;;;;;0.50;0.50;;;11.30;99.90;;;;;;5091604;28;20430;-69
2022/06/15 03:41:40;;;;;;;0.40;0.40;;;11.30;99.90;;;;;;5091765;28;20451;-68
2022/06/15 03:44:28;;;;;;;0.50;0.50;;;11.40;99.90;;;;;;5091761;28;20442;-70
2022/06/15 03:47:17;;;;;;;0.50;0.50;;;11.30;99.90;;;;;;5091571;28;20479;-70
2022/06/15 03:50:06;;;;;;;0.50;0.50;;;11.40;99.90;;;;;;5091584;28;20430;-69
2022/06/15 03:52:55;;;;;;;0.50;0.50;;;11.50;99.90;;;;;;5094342;28;20447;-69
2022/06/15 03:55:46;;;;;;;0.50;0.50;;;11.60;99.90;;;;;;5098648;28;20444;-68
2022/06/15 03:58:34;;;;;;;0.50;0.50;;;11.60;99.90;;;;;;5098406;28;20444;-70
2022/06/15 04:01:23;;;;;;;0.50;0.50;;;11.80;99.90;;;;;;5102906;28;20515;-68
2022/06/15 04:04:12;;;;;;;0.50;0.50;;;11.90;99.90;;;;;;5103813;28;20418;-70
2022/06/15 04:07:01;;;;;;;0.50;0.50;;;12.00;99.90;;;;;;5103969;28;20446;-70
2022/06/15 04:09:48;;;;;;;0.50;0.50;;;12.10;99.90;;;;;;5102988;28;20418;-69
2022/06/15 04:12:36;;;;;;;0.40;0.40;;;12.20;99.90;;;;;;5102545;28;20452;-70
2022/06/15 04:15:24;;;;;;;0.50;0.50;;;12.20;99.90;;;;;;5103472;28;20426;-68
2022/06/15 04:18:12;;;;;;;0.50;0.50;;;12.30;99.90;;;;;;5104121;28;20870;-69
2022/06/15 04:21:02;;;;;;;0.50;0.50;;;12.30;99.90;;;;;;5104588;28;20446;-67
2022/06/15 04:23:50;;;;;;;0.50;0.50;;;12.30;99.90;;;;;;5103618;28;20426;-68
2022/06/15 04:26:39;;;;;;;0.50;0.50;;;12.40;99.90;;;;;;5099065;28;20422;-69
2022/06/15 04:29:27;;;;;;;0.40;0.40;;;12.40;99.90;;;;;;5095221;28;20438;-68
2022/06/15 04:32:16;;;;;;;0.47;0.47;;;12.50;99.90;;;;;;5097401;28;20977;-68
2022/06/15 04:35:04;;;;;;;0.40;0.40;;;12.50;99.90;;;;;;5095843;28;20425;-68
2022/06/15 04:37:54;;;;;;;0.50;0.50;;;12.60;99.90;;;;;;5095978;28;20426;-68
2022/06/15 04:40:42;;;;;;;0.47;0.47;;;12.60;99.90;;;;;;5101265;28;20461;-71
2022/06/15 04:43:30;;;;;;;0.50;0.50;;;12.70;99.90;;;;;;5097817;28;20450;-68
2022/06/15 04:46:19;;;;;;;0.50;0.50;;;12.70;99.90;;;;;;5094682;28;20952;-69
2022/06/15 04:49:08;;;;;;;0.50;0.50;;;12.80;99.90;;;;;;5093262;28;20426;-71
2022/06/15 04:51:56;;;;;;;0.50;0.50;;;12.90;99.90;;;;;;5094766;28;20434;-70
2022/06/15 04:54:45;;;;;;;0.50;0.50;;;12.90;99.90;;;;;;5094870;28;20470;-69
2022/06/15 04:57:34;;;;;;;0.50;0.50;;;13.00;99.90;;;;;;5094882;28;20426;-69
2022/06/15 05:00:25;;;;;;;0.50;0.50;;;13.10;99.90;;;;;;5094105;28;20544;-70
2022/06/15 05:03:13;;;;;;;0.43;0.43;;;13.20;99.90;;;;;;5093423;28;20442;-69
2022/06/15 05:06:07;;;;;;;0.50;0.50;;;13.30;99.90;;;;;;5094367;28;20435;-69
2022/06/15 05:08:56;;;;;;;0.40;0.40;;;13.30;99.90;;;;;;5094086;28;20422;-70
2022/06/15 05:11:45;;;;;;;0.50;0.50;;;13.40;99.90;;;;;;5094089;28;20552;-70
2022/06/15 05:14:33;;;;;;;0.40;0.40;;;13.50;99.90;;;;;;5093279;28;20414;-70
2022/06/15 05:17:24;;;;;;;0.50;0.50;;;13.50;99.90;;;;;;5094569;28;20798;-70
2022/06/15 05:20:14;;;;;;;0.50;0.50;;;13.60;99.90;;;;;;5092700;28;20457;-72
2022/06/15 05:23:02;;;;;;;0.40;0.40;;;13.70;99.90;;;;;;5093743;28;20541;-71
2022/06/15 05:25:51;;;;;;;0.50;0.50;;;13.80;99.90;;;;;;5094257;28;20480;-70
2022/06/15 05:28:44;;;;;;;0.50;0.50;;;13.80;99.90;;;;;;5093874;28;20453;-68
2022/06/15 05:31:32;;;;;;;0.50;0.50;;;13.90;99.90;;;;;;5093582;28;20469;-68
2022/06/15 05:34:20;;;;;;;0.43;0.43;;;14.00;99.90;;;;;;5093715;28;20583;-68
2022/06/15 05:37:08;;;;;;;0.50;0.50;;;14.10;99.90;;;;;;5092986;28;20426;-69
2022/06/15 05:39:57;;;;;;;0.50;0.50;;;14.20;99.90;;;;;;5091696;28;20422;-68
2022/06/15 05:42:45;;;;;;;0.50;0.50;;;14.30;99.90;;;;;;5093052;28;20445;-71
2022/06/15 05:45:35;;;;;;;0.50;0.50;;;14.40;99.90;;;;;;5075815;28;20427;-70
2022/06/15 05:48:23;;;;;;;0.80;0.80;;;14.50;99.90;;;;;;5077518;28;20907;-68
2022/06/15 05:51:11;;;;;;;0.50;0.50;;;14.60;99.90;;;;;;5080072;28;20419;-69
2022/06/15 05:53:59;;;;;;;0.50;0.50;;;14.70;99.90;;;;;;5074448;28;20943;-68
2022/06/15 05:56:48;;;;;;;0.50;0.50;;;14.80;99.90;;;;;;5086937;28;20433;-69
2022/06/15 05:59:36;;;;;;;0.50;0.50;;;14.90;99.90;;;;;;5092409;28;20681;-69
2022/06/15 06:02:27;;;;;;;0.50;0.50;;;15.00;99.90;;;;;;5084222;28;21019;-70
2022/06/15 06:05:15;;;;;;;0.50;0.50;;;15.10;99.90;;;;;;5084366;28;20501;-70
2022/06/15 06:08:03;;;;;;;0.40;0.40;;;15.20;99.90;;;;;;5090128;28;20434;-69
2022/06/15 06:10:52;;;;;;;0.50;0.50;;;15.30;99.90;;;;;;5091962;28;20263;-69
2022/06/15 06:13:40;;;;;;;0.40;0.40;;;15.40;99.90;;;;;;5075732;28;20196;-68
2022/06/15 06:16:28;;;;;;;0.50;0.50;;;15.50;99.90;;;;;;5076594;28;20555;-69
2022/06/15 06:19:18;;;;;;;0.50;0.50;;;15.70;99.90;;;;;;5070929;28;20201;-68
2022/06/15 06:22:06;;;;;;;0.50;0.50;;;15.80;99.90;;;;;;5070671;28;20229;-70
2022/06/15 06:24:54;;;;;;;0.50;0.50;;;15.90;99.90;;;;;;5072035;28;20438;-71
2022/06/15 06:27:42;;;;;;;0.50;0.50;;;16.00;99.90;;;;;;5073419;28;20231;-68
2022/06/15 06:30:31;;;;;;;0.40;0.40;;;16.10;99.90;;;;;;5073201;28;20196;-68
2022/06/15 06:33:19;;;;;;;0.50;0.50;;;16.20;99.90;;;;;;5073271;28;20235;-68
2022/06/15 06:36:15;;;;;;;0.50;0.50;;;16.30;99.90;;;;;;5074123;28;20197;-68
2022/06/15 06:39:07;;;;;;;0.50;0.50;;;16.40;99.90;;;;;;5073472;28;20586;-71
2022/06/15 06:41:57;;;;;;;0.40;0.40;;;16.60;99.90;;;;;;5075831;28;20731;-68
2022/06/15 06:44:45;;;;;;;0.50;0.50;;;16.80;99.90;;;;;;5081814;28;20200;-70
2022/06/15 06:47:33;;;;;;;0.40;0.40;;;16.90;99.90;;;;;;5074092;28;20289;-70
2022/06/15 06:50:22;;;;;;;0.40;0.40;;;17.00;99.90;;;;;;5072263;28;20205;-71
2022/06/15 06:53:14;;;;;;;0.50;0.50;;;17.30;99.90;;;;;;5072024;28;20208;-71
2022/06/15 06:56:03;;;;;;;0.50;0.50;;;17.50;99.90;;;;;;5072097;28;20685;-70
2022/06/15 06:58:51;;;;;;;0.50;0.50;;;17.70;99.90;;;;;;5071565;28;20196;-71
2022/06/15 07:01:42;;;;;;;0.40;0.40;;;17.90;99.90;;;;;;5071167;28;20274;-69
2022/06/15 07:04:30;;;;;;;0.40;0.40;;;18.10;99.90;;;;;;5071189;28;20192;-70
2022/06/15 07:07:19;;;;;;;1.23;1.13;;;18.30;99.90;;;;;;5070849;28;20200;-71
2022/06/15 07:10:09;;;;;;;0.47;0.47;;;18.50;99.90;;;;;;5070761;28;20553;-69
2022/06/15 07:12:57;;;;;;;0.40;0.40;;;18.70;99.90;;;;;;5070608;28;20394;-70
2022/06/15 07:15:46;;;;;;;0.40;0.40;;;18.90;99.90;;;;;;5070940;28;20705;-69
2022/06/15 07:18:34;;;;;;;0.40;0.40;;;19.00;99.90;;;;;;5070434;28;20204;-68
2022/06/15 07:21:24;;;;;;;0.45;0.45;;;19.10;99.90;;;;;;5071115;28;20317;-68
2022/06/15 07:24:12;;;;;;;0.40;0.40;;;19.40;99.90;;;;;;5080172;28;20218;-69
2022/06/15 07:27:02;;;;;;;0.50;0.50;;;19.60;99.90;;;;;;5080958;28;20204;-68
2022/06/15 07:29:50;;;;;;;0.40;0.40;;;19.90;99.90;;;;;;5088224;28;20196;-71
2022/06/15 07:32:40;;;;;;;0.40;0.40;;;20.20;99.90;;;;;;5081393;28;20220;-69
2022/06/15 07:35:33;;;;;;;0.40;0.40;;;20.30;99.90;;;;;;5072792;23;20241;-67
2022/06/15 07:38:22;;;;;;;0.40;0.40;;;20.40;99.90;;;;;;5033838;28;20205;-67
2022/06/15 07:41:18;;;;;;;0.40;0.40;;;20.70;99.50;;;;;;5026132;28;20194;-67
2022/06/15 07:44:07;;;;;;;0.40;0.40;;;21.10;98.30;;;;;;5027770;28;20198;-66
2022/06/15 07:50:02;;;;;;;0.40;0.40;;;21.20;97.00;;;;;;5027406;28;20203;-67
2022/06/15 07:53:14;;;;;;;0.40;0.40;;;21.10;95.80;;;;;;5024256;28;20241;-66
2022/06/15 07:56:02;;;;;;;0.40;0.40;;;21.20;96.00;;;;;;5020170;28;20218;-67
2022/06/15 07:58:50;;;;;;;0.40;0.40;;;21.10;95.70;;;;;;5021465;28;20552;-66
2022/06/15 08:01:40;;;;;;;0.40;0.40;;;21.20;95.40;;;;;;5035494;28;20248;-67
2022/06/15 08:04:28;;;;;;;0.40;0.40;;;21.10;95.50;;;;;;5033829;28;20216;-67
2022/06/15 08:07:17;;;;;;;0.40;0.40;;;21.10;94.90;;;;;;5035634;28;20273;-67
2022/06/15 08:10:07;;;;;;;0.40;0.40;;;21.00;95.00;;;;;;5034221;28;20245;-66
2022/06/15 08:12:55;;;;;;;0.40;0.40;;;20.80;94.90;;;;;;5041603;28;20206;-66
2022/06/15 08:15:44;;;;;;;0.40;0.40;;;20.80;94.00;;;;;;5024492;28;20222;-66
2022/06/15 08:18:39;;;;;;;0.40;0.40;;;20.60;94.20;;;;;;5025829;28;20218;-66
2022/06/15 08:21:32;;;;;;;0.50;0.50;;;20.50;94.60;;;;;;5017936;28;20257;-68
2022/06/15 08:24:21;;;;;;;0.40;0.40;;;20.40;94.70;;;;;;5022952;28;20190;-67
2022/06/15 08:27:10;;;;;;;0.40;0.40;;;20.30;94.70;;;;;;5025810;28;20199;-68
2022/06/15 08:29:59;;;;;;;0.40;0.40;;;20.30;94.90;;;;;;5022179;28;20190;-68
2022/06/15 08:32:48;;;;;;;0.40;0.40;;;20.30;93.90;;;;;;5022104;28;20199;-67
2022/06/15 08:35:38;;;;;;;0.40;0.40;;;20.20;94.80;;;;;;5024548;28;20702;-68
2022/06/15 08:38:28;;;;;;;0.40;0.40;;;20.20;95.00;;;;;;5030880;28;20728;-68
2022/06/15 08:41:25;;;;;;;0.40;0.40;;;20.30;94.20;;;;;;5034507;28;20198;-67
2022/06/15 08:44:22;;;;;;;0.40;0.40;;;20.30;93.50;;;;;;5027917;28;20213;-68
2022/06/15 08:47:37;;;;;;;0.40;0.40;;;20.30;93.90;;;;;;5031145;28;20204;-67
2022/06/15 08:50:34;;;;;;;0.40;0.40;;;20.30;94.30;;;;;;5018567;28;20194;-67
2022/06/15 08:53:27;;;;;;;0.40;0.40;;;20.30;94.60;;;;;;5018509;28;20271;-68
2022/06/15 08:56:21;;;;;;;0.60;0.60;;;20.10;93.80;;;;;;5021263;28;20226;-67
2022/06/15 08:59:15;;;;;;;0.40;0.40;;;20.10;94.40;;;;;;5057379;28;20594;-68
2022/06/15 09:02:09;;;;;;;0.40;0.40;;;20.10;94.50;;;;;;5057625;28;20213;-67
2022/06/15 09:05:03;;;;;;;0.40;0.40;;;20.10;94.00;;;;;;5057336;28;20282;-67
2022/06/15 09:08:04;;;;;;;0.40;0.40;;;20.10;93.80;;;;;;5040117;28;21289;-68
2022/06/15 09:11:02;;;;;;;0.40;0.40;;;20.10;93.60;;;;;;5033372;28;20214;-68
2022/06/15 09:14:04;;;;;;;0.40;0.40;;;20.10;94.40;;;;;;5033757;28;20205;-68
2022/06/15 09:16:59;;;;;;;0.40;0.40;;;20.20;94.40;;;;;;5054084;28;20205;-68
2022/06/15 09:19:55;;;;;;;0.40;0.40;;;20.20;93.70;;;;;;5053952;28;20229;-68
2022/06/15 09:22:49;;;;;;;0.40;0.40;;;20.30;93.60;;;;;;5050285;28;20214;-67
2022/06/15 09:25:42;;;;;;;0.40;0.40;;;20.30;93.90;;;;;;5038348;28;20214;-68
2022/06/15 09:28:38;;;;;;;0.40;0.40;;;20.40;93.90;;;;;;5042963;28;20201;-68
2022/06/15 09:31:32;;;;;;;0.40;0.40;;;20.40;92.90;;;;;;5052287;28;20201;-67
2022/06/15 09:34:26;;;;;;;0.40;0.40;;;20.50;92.80;;;;;;5051099;28;20205;-68
2022/06/15 09:37:17;;;;;;;0.40;0.40;;;20.50;93.00;;;;;;5041921;28;20221;-67
2022/06/15 09:40:07;;;;;;;0.40;0.40;;;20.60;93.30;;;;;;5041196;28;20403;-68
2022/06/15 09:43:03;;;;;;;0.40;0.40;;;20.70;93.20;;;;;;5040150;28;20289;-67
2022/06/15 09:46:02;;;;;;;0.40;0.40;;;20.80;93.00;;;;;;5037446;28;20226;-68
2022/06/15 09:49:05;;;;;;;0.40;0.40;;;20.90;92.60;;;;;;5030645;28;20675;-68
2022/06/15 09:52:02;;;;;;;0.40;0.40;;;21.00;92.30;;;;;;5028144;28;20194;-68
2022/06/15 09:55:02;;;;;;;0.40;0.40;;;21.10;92.40;;;;;;5030065;28;20614;-68
2022/06/15 09:57:53;;;;;;;0.40;0.40;;;21.20;92.40;;;;;;5031515;28;20199;-68
2022/06/15 10:00:43;;;;;;;0.40;0.40;;;21.20;92.20;;;;;;5027951;28;20201;-68
2022/06/15 10:03:37;;;;;;;0.40;0.40;;;21.30;91.80;;;;;;5023302;28;20214;-68
2022/06/15 10:06:30;;;;;;;0.40;0.40;;;21.30;91.40;;;;;;5026524;28;20214;-68
2022/06/15 10:09:23;;;;;;;0.40;0.40;;;21.40;92.30;;;;;;5024131;28;20198;-68
2022/06/15 10:15:53;;;;;;;0.40;0.40;;;21.60;91.60;;;;;;5023278;28;20725;-68
2022/06/15 10:18:47;;;;;;;0.40;0.40;;;21.70;91.70;;;;;;5025265;28;20206;-68
2022/06/15 10:21:37;;;;;;;0.40;0.40;;;21.80;91.30;;;;;;5028230;28;20781;-68
2022/06/15 10:24:30;;;;;;;0.40;0.40;;;21.80;91.00;;;;;;5027164;28;20311;-68
2022/06/15 10:27:21;;;;;;;0.40;0.40;;;21.90;91.10;;;;;;5029809;28;20265;-68
2022/06/15 10:30:19;;;;;;;0.40;0.40;;;22.00;90.70;;;;;;5038235;28;20198;-68
2022/06/15 10:33:19;;;;;;;0.40;0.40;;;22.10;90.80;;;;;;5034532;28;20206;-68
2022/06/15 10:36:21;;;;;;;0.40;0.40;;;22.30;90.40;;;;;;5035203;28;20229;-68
2022/06/15 10:39:22;;;;;;;0.40;0.40;;;22.40;90.50;;;;;;5033560;28;20556;-68
2022/06/15 10:42:22;;;;;;;0.40;0.40;;;22.50;90.40;;;;;;5034650;28;20198;-68
2022/06/15 10:45:22;;;;;;;0.40;0.40;;;22.60;89.40;;;;;;5034012;28;20697;-68
2022/06/15 10:48:15;;;;;;;0.40;0.40;;;22.60;88.30;;;;;;5035559;28;20202;-68
2022/06/15 10:51:07;;;;;;;0.40;0.40;;;22.60;88.60;;;;;;5034059;28;20233;-68
2022/06/15 11:03:17;;;;;;;0.40;0.40;;;22.50;87.70;;;;;;5112110;28;20223;-67
2022/06/15 11:06:06;;;;;;;0.40;0.40;;;22.50;89.30;;;;;;5089820;28;20310;-67
2022/06/15 11:08:54;;;;;;;0.40;0.40;;;22.60;88.50;;;;;;5114552;28;20210;-67
2022/06/15 11:11:42;;;;;;;0.40;0.40;;;22.70;87.70;;;;;;5132900;28;20596;-68
2022/06/15 11:14:42;;;;;;;0.40;0.40;;;22.60;86.10;;;;;;5131300;27;20576;-67
2022/06/15 11:20:46;;;;;;;0.40;0.40;;;22.60;85.80;;;;;;5130973;28;20212;-68
2022/06/15 11:23:44;;;;;;;0.40;0.40;;;22.50;85.90;;;;;;5131482;28;20202;-68
2022/06/15 11:26:53;;;;;;;0.40;0.40;;;22.50;86.70;;;;;;5129657;28;20575;-68
2022/06/15 11:29:51;;;;;;;0.40;0.40;;;22.60;87.50;;;;;;5129849;28;20209;-68
2022/06/15 11:32:44;;;;;;;0.40;0.40;;;22.80;86.70;;;;;;5127426;28;20273;-68
2022/06/15 11:35:38;;;;;;;0.40;0.40;;;22.90;84.80;;;;;;5130307;27;20222;-68
2022/06/15 11:38:38;;;;;;;0.40;0.40;;;23.00;86.40;;;;;;5130927;28;20202;-67
2022/06/15 11:41:29;;;;;;;0.40;0.40;;;23.10;86.30;;;;;;5130180;28;20234;-68
2022/06/15 11:44:20;;;;;;;0.40;0.40;;;23.20;82.50;;;;;;5130451;27;20206;-67
2022/06/15 11:47:21;;;;;;;0.40;0.40;;;23.20;83.10;;;;;;5135674;28;20269;-68
2022/06/15 11:50:19;;;;;;;0.40;0.40;;;23.30;83.30;;;;;;5137564;28;20190;-68
2022/06/15 11:53:21;;;;;;;0.40;0.40;;;23.30;84.10;;;;;;5130637;28;20202;-68
2022/06/15 11:56:12;;;;;;;0.40;0.40;;;23.40;84.10;;;;;;5129553;27;20234;-68
2022/06/15 11:59:07;;;;;;;0.40;0.40;;;23.50;84.60;;;;;;5111173;28;20207;-67
2022/06/15 12:02:32;;;;;;;0.40;0.40;;;23.60;83.40;;;;;;5093991;28;20734;-68
2022/06/15 12:05:32;;;;;;;0.40;0.40;;;23.70;81.80;;;;;;5128913;27;20287;-68
2022/06/15 12:08:31;;;;;;;0.50;0.43;;;23.70;82.80;;;;;;5113286;28;20195;-68
2022/06/15 12:14:39;;;;;;;0.40;0.40;;;23.70;81.40;;;;;;5090340;22;20573;-67
2022/06/15 12:17:35;;;;;;;0.40;0.40;;;23.80;81.40;;;;;;5048606;28;20567;-69
2022/06/15 12:20:42;;;;;;;0.60;0.60;;;23.90;82.40;;;;;;5056853;28;20212;-69
2022/06/15 12:23:40;;;;;;;0.40;0.40;;;24.00;81.80;;;;;;5065672;28;20221;-68
2022/06/15 12:26:38;;;;;;;0.40;0.40;;;24.10;81.20;;;;;;5057444;28;20200;-68
2022/06/15 12:29:38;;;;;;;0.50;0.50;;;24.20;81.50;;;;;;5058893;28;20205;-68
2022/06/15 12:32:34;;;;;;;1.30;0.60;;;24.20;81.50;;;;;;5052914;28;20208;-68
2022/06/15 12:35:31;;;;;;;0.45;0.45;;;24.30;79.10;;;;;;5054869;28;20194;-68
2022/06/15 12:38:32;;;;;;;0.50;0.50;;;24.40;80.00;;;;;;5070044;28;20192;-69
2022/06/15 12:44:37;;;;;;;0.40;0.40;;;26.90;77.40;;;;;;5061046;28;20212;-67
2022/06/15 12:47:27;;;;;;;0.40;0.40;;;30.40;70.50;;;;;;5071667;28;20330;-67
2022/06/15 12:50:45;;;;;;;0.40;0.40;;;33.50;62.40;;;;;;5072408;28;20201;-67
2022/06/15 12:53:44;;;;;;;0.40;0.40;;;36.40;55.50;;;;;;5073140;28;20216;-67
2022/06/15 12:56:45;;;;;;;0.40;0.40;;;38.40;49.40;;;;;;5071896;28;20603;-67
2022/06/15 12:59:44;;;;;;;0.40;0.40;;;39.80;44.40;;;;;;5072048;28;20215;-67
2022/06/15 13:02:36;;;;;;;0.40;0.40;;;40.00;42.50;;;;;;5071461;28;20196;-67
2022/06/15 13:05:31;;;;;;;0.40;0.40;;;41.10;42.10;;;;;;5071313;28;20200;-67
2022/06/15 13:08:32;;;;;;;0.40;0.40;;;42.10;40.60;;;;;;5061386;28;20279;-68
2022/06/15 13:11:23;;;;;;;0.40;0.40;;;43.00;38.60;;;;;;5061796;28;20200;-68
2022/06/15 13:14:14;;;;;;;0.40;0.40;;;43.70;37.10;;;;;;5032436;28;20248;-67
2022/06/15 13:17:08;;;;;;;0.50;0.50;;;44.30;36.10;;;;;;5032494;28;20218;-68
2022/06/15 13:20:04;;;;;;;0.50;0.50;;;44.60;35.20;;;;;;5031539;28;20316;-68
2022/06/15 13:22:54;;;;;;;0.50;0.50;;;44.00;34.50;;;;;;5033037;28;20202;-67
2022/06/15 13:25:51;;;;;;;0.50;0.50;;;44.00;35.00;;;;;;5034938;28;20202;-68
2022/06/15 13:28:42;;;;;;;0.50;0.50;;;44.40;34.40;;;;;;5063237;28;20202;-68
2022/06/15 13:31:42;;;;;;;0.50;0.50;;;45.20;33.80;;;;;;5059562;28;20558;-68
2022/06/15 13:34:45;;;;;;;0.50;0.50;;;45.80;32.90;;;;;;5060780;28;20217;-68
2022/06/15 13:37:35;;;;;;;0.50;0.50;;;46.60;32.40;;;;;;5066811;28;20220;-68
2022/06/15 13:40:24;;;;;;;0.50;0.50;;;46.90;31.70;;;;;;5071309;28;20193;-68
2022/06/15 13:43:12;;;;;;;0.60;0.60;;;47.30;31.40;;;;;;5068124;28;20628;-67
2022/06/15 13:46:03;;;;;;;0.98;0.98;;;47.80;30.80;;;;;;5052091;28;20200;-68
2022/06/15 13:48:53;;;;;;;0.60;0.60;;;48.30;31.50;;;;;;5052415;28;20214;-68
2022/06/15 13:51:45;;;;;;;0.70;0.70;;;48.30;30.00;;;;;;5051670;28;20570;-67
2022/06/15 13:54:50;;;;;;;1.33;1.23;;;48.70;30.00;;;;;;5062671;28;20218;-67
2022/06/15 13:57:54;;;;;;;0.60;0.60;;;48.70;29.80;;;;;;5060189;28;20228;-67
2022/06/15 14:00:53;;;;;;;0.60;0.60;;;48.80;29.90;;;;;;5030751;28;20194;-67
2022/06/15 14:04:09;;;;;;;0.63;0.63;;;49.50;29.50;;;;;;5032650;28;20230;-68
2022/06/15 14:07:23;;;;;;;0.60;0.60;;;49.50;28.90;;;;;;5032385;28;20261;-68
2022/06/15 14:10:21;;;;;;;0.70;0.70;;;50.20;28.70;;;;;;5036065;28;20780;-68
2022/06/15 14:13:27;;;;;;;0.88;0.88;;;50.20;28.30;;;;;;5055813;28;20259;-68
2022/06/15 14:16:47;;;;;;;0.60;0.60;;;50.10;28.40;;;;;;5052845;28;20223;-68
2022/06/15 14:19:39;;;;;;;0.70;0.70;;;49.90;28.70;;;;;;5049474;28;20211;-68
2022/06/15 14:22:27;;;;;;;0.70;0.70;;;50.00;28.10;;;;;;5048900;28;20632;-69
2022/06/15 14:25:17;;;;;;;0.60;0.60;;;50.50;28.60;;;;;;5039167;28;20607;-69
2022/06/15 14:28:10;;;;;;;1.33;1.33;;;50.10;28.10;;;;;;5069088;28;20228;-71
2022/06/15 14:31:03;;;;;;;0.70;0.70;;;49.90;28.10;;;;;;5070401;28;20269;-70
2022/06/15 14:33:55;;;;;;;0.63;0.63;;;49.40;28.70;;;;;;5068709;28;20221;-70
2022/06/15 14:36:54;;;;;;;0.60;0.60;;;49.50;28.40;;;;;;5069972;28;20215;-70
2022/06/15 14:39:46;;;;;;;0.80;0.80;;;50.30;28.50;;;;;;5070540;28;20668;-69
2022/06/15 14:45:41;;;;;;;0.70;0.70;;;50.70;27.70;;;;;;5065230;28;20258;-69
2022/06/15 14:48:33;;;;;;;0.70;0.70;;;50.20;27.60;;;;;;5031156;28;20244;-67
2022/06/15 14:51:24;;;;;;;0.60;0.60;;;49.10;27.60;;;;;;5031208;28;20205;-69
2022/06/15 14:54:15;;;;;;;0.60;0.60;;;48.70;28.40;;;;;;5030407;28;20254;-69
2022/06/15 14:57:04;;;;;;;0.70;0.70;;;48.70;28.00;;;;;;5031113;28;20223;-69
2022/06/15 14:59:54;;;;;;;0.63;0.63;;;48.90;28.10;;;;;;5030938;28;20213;-69
2022/06/15 15:02:47;;;;;;;0.60;0.60;;;48.80;28.20;;;;;;5031894;28;20204;-69
2022/06/15 15:05:38;;;;;;;0.60;0.60;;;48.70;28.20;;;;;;5031198;28;20198;-69
2022/06/15 15:08:32;;;;;;;1.23;1.23;;;49.10;28.30;;;;;;5030819;28;20247;-69
2022/06/15 15:11:31;;;;;;;0.70;0.70;;;49.20;28.10;;;;;;5031653;28;20197;-69
2022/06/15 15:14:25;;;;;;;0.60;0.60;;;49.10;27.70;;;;;;5030513;28;20226;-69
2022/06/15 15:17:13;;;;;;;0.70;0.70;;;49.40;27.80;;;;;;5030386;28;20223;-69
2022/06/15 15:20:28;;;;;;;0.60;0.60;;;49.80;28.20;;;;;;5030669;28;20676;-69
2022/06/15 15:23:18;;;;;;;0.60;0.60;;;50.10;27.60;;;;;;5031497;28;20604;-69
2022/06/15 15:26:06;;;;;;;0.70;0.70;;;49.90;27.80;;;;;;5030731;28;20210;-69
2022/06/15 15:35:16;;;;;;;0.70;0.70;;;50.00;27.60;;;;;;5003329;28;20203;-69